F/V Atalante — FVRQ — position and weather

sailwx.info

Track history (hours):
 
Tides and Currents Weather Stations Pressure Air Temp Water Temp Dewpoint Dewpoint Depression Visibility Wind Speed Wind Dir Waves Ship Positions

F/V Atalante

Last reported at 2015-Aug-28 06:33 UTC. Time now 2015-Aug-28 07:36 UTC.
Position N 47°21' W 002°31'.

Length 21 m; draft 3.9 m.

Type: . MMSI: 228854000.

Date/timePositionNaut miles runAvg speedWind from/ knotsBaromVisibWave heightAir tempDewpointWater temp
2015-Aug-28 06:33N 47°21' W 002°31'0 0.0
2015-Aug-28 05:32N 47°21' W 002°31'3 3.2
2015-Aug-28 04:33N 47°20' W 002°35'9 9.5
2015-Aug-28 03:33N 47°18' W 002°49'10 9.7
2015-Aug-28 02:33N 47°21' W 003°02'1010.3
2015-Aug-28 01:33N 47°25' W 003°17'1010.1
2015-Aug-28 00:33N 47°29' W 003°31'1010.0
2015-Aug-27 23:33N 47°32' W 003°45'28 6.9
2015-Aug-27 19:33N 47°41' W 004°23'37 4.1
2015-Aug-27 10:33N 47°60' W 005°11'14 2.3
2015-Aug-27 04:33N 47°53' W 004°54'8 7.7
2015-Aug-27 03:33N 47°46' W 004°57'49 8.9
2015-Aug-26 22:05N 47°31' W 003°49'5 9.4
2015-Aug-26 21:33N 47°30' W 003°41'9 9.3
2015-Aug-26 20:33N 47°28' W 003°28'10 9.5
2015-Aug-26 19:33N 47°25' W 003°15'1010.2
2015-Aug-26 18:33N 47°20' W 003°02'10 9.9
2015-Aug-26 17:34N 47°18' W 002°48'10 9.9
2015-Aug-26 16:33N 47°20' W 002°33'2 1.8
2015-Aug-26 15:33N 47°21' W 002°31'0 0.0
2015-Aug-26 07:20N 47°21' W 002°31'0 0.0
2015-Aug-26 06:33N 47°21' W 002°31'0 0.0
2015-Aug-26 05:33N 47°21' W 002°31'0 0.0
2015-Aug-26 04:33N 47°21' W 002°31'0 0.0
2015-Aug-26 03:32N 47°21' W 002°31'0 0.0
2015-Aug-26 02:33N 47°21' W 002°31'0 0.0
2015-Aug-26 01:33N 47°21' W 002°31'0 0.0
2015-Aug-26 00:33N 47°21' W 002°31'0 0.0
2015-Aug-25 23:33N 47°21' W 002°31'0 0.0
2015-Aug-25 22:34N 47°21' W 002°31'0 0.0
2015-Aug-25 21:33N 47°21' W 002°31'0 0.0
2015-Aug-25 20:33N 47°21' W 002°31'0 0.0
2015-Aug-25 19:33N 47°21' W 002°31'0 0.0
2015-Aug-25 18:34N 47°21' W 002°31'0 0.0
2015-Aug-25 17:33N 47°21' W 002°31'0 0.0
2015-Aug-25 16:16N 47°21' W 002°31'0 0.0
2015-Aug-25 15:20N 47°21' W 002°31'0 0.0
2015-Aug-25 14:33N 47°21' W 002°31'0 0.0
2015-Aug-25 13:33N 47°21' W 002°31'0 0.0
2015-Aug-25 12:33N 47°21' W 002°31'0 0.0
2015-Aug-25 11:15N 47°21' W 002°31'0 0.0
2015-Aug-25 06:08N 47°21' W 002°31'0 0.0
2015-Aug-25 05:33N 47°21' W 002°31'0 0.0
2015-Aug-25 04:33N 47°21' W 002°31'0 0.0
2015-Aug-25 03:33N 47°21' W 002°31'0 0.0
2015-Aug-25 02:33N 47°21' W 002°31'0 0.0
2015-Aug-25 01:33N 47°21' W 002°31'0 0.0
2015-Aug-25 00:33N 47°21' W 002°31'0 0.0
2015-Aug-24 23:33N 47°21' W 002°31'0 0.0
2015-Aug-24 22:33N 47°21' W 002°31'0 0.0
2015-Aug-24 21:33N 47°21' W 002°31'0 0.0
2015-Aug-24 20:26N 47°21' W 002°31'0 0.0
2015-Aug-24 19:33N 47°21' W 002°31'0 0.0
2015-Aug-24 18:32N 47°21' W 002°31'0 0.0
2015-Aug-24 17:32N 47°21' W 002°31'0 0.0
2015-Aug-24 16:33N 47°21' W 002°31'0 0.0
2015-Aug-24 15:33N 47°21' W 002°31'0 0.0
2015-Aug-24 14:32N 47°21' W 002°31'0 0.0
2015-Aug-24 13:33N 47°21' W 002°31'0 0.0
2015-Aug-24 12:31N 47°21' W 002°31'0 0.0
2015-Aug-24 11:32N 47°21' W 002°31'0 0.0
2015-Aug-24 10:28N 47°21' W 002°31'0 0.0
2015-Aug-24 09:33N 47°21' W 002°31'0 0.0
2015-Aug-24 08:33N 47°21' W 002°31'0 0.0
2015-Aug-24 07:29N 47°21' W 002°31'0 0.0
2015-Aug-24 06:26N 47°21' W 002°31'0 0.0
2015-Aug-24 05:23N 47°21' W 002°31'0 0.0
2015-Aug-24 04:22N 47°21' W 002°31'15 7.2
2015-Aug-24 02:20N 47°18' W 002°52'8 9.4
2015-Aug-24 01:27N 47°21' W 003°03'8 9.1
2015-Aug-24 00:33N 47°25' W 003°14'9 8.9
2015-Aug-23 23:33N 47°28' W 003°26'9 8.9
2015-Aug-23 22:33N 47°31' W 003°39'9 8.8
2015-Aug-23 21:33N 47°34' W 003°51'66 9.4
2015-Aug-23 14:33N 48°02' W 005°19'6 5.2
2015-Aug-23 13:27N 47°60' W 005°12'63 4.5
2015-Aug-22 23:31N 47°32' W 003°47'9 9.8
2015-Aug-22 22:34N 47°29' W 003°34'10 9.5
2015-Aug-22 21:33N 47°26' W 003°20'10 9.9
2015-Aug-22 20:33N 47°23' W 003°07'10 9.9
2015-Aug-22 19:33N 47°19' W 002°53'9 9.1
2015-Aug-22 18:33N 47°19' W 002°40'6 0.1
2015-Aug-20 16:26N 47°21' W 002°31'0 0.1
2015-Aug-20 15:33N 47°21' W 002°31'0 0.0
2015-Aug-20 14:33N 47°21' W 002°31'7 7.3
2015-Aug-20 13:33N 47°15' W 002°37'8 8.3
2015-Aug-20 12:33N 47°08' W 002°43'9 3.8
2015-Aug-20 10:12N 47°00' W 002°50'3 4.3
2015-Aug-20 09:24N 46°59' W 002°45'4 1.6
2015-Aug-20 07:10N 47°01' W 002°40'2 3.1
2015-Aug-20 06:28N 46°59' W 002°39'10 4.2
2015-Aug-20 04:12N 47°08' W 002°37'7 8.9
2015-Aug-20 03:25N 47°15' W 002°35'6 6.8
2015-Aug-20 02:33N 47°20' W 002°31'1 0.6
2015-Aug-20 01:33N 47°21' W 002°31'0 0.0
2015-Aug-20 00:33N 47°21' W 002°31'0 0.0
2015-Aug-19 23:33N 47°21' W 002°31'8 8.3
2015-Aug-19 22:32N 47°13' W 002°36'1010.0
2015-Aug-19 21:32N 47°03' W 002°36'1010.0
2015-Aug-19 20:33N 46°54' W 002°34'9 0.9
2015-Aug-19 10:32N 47°01' W 002°41'3 1.2
2015-Aug-19 08:16N 46°59' W 002°39'1 1.1
2015-Aug-19 07:08N 46°59' W 002°37'2 2.9
2015-Aug-19 06:24N 46°60' W 002°34'1 1.2
2015-Aug-19 05:33N 46°59' W 002°35'1 0.3
2015-Aug-19 03:29N 46°59' W 002°35'3 2.8
2015-Aug-19 02:30N 47°01' W 002°35'8 8.8
2015-Aug-19 01:33N 47°10' W 002°35'9 9.2
2015-Aug-19 00:33N 47°19' W 002°35'  
Track history (hours):
 
Tides and Currents Weather Stations Pressure Air Temp Water Temp Dewpoint Dewpoint Depression Visibility Wind Speed Wind Dir Waves Ship Positions

F/V Atalante

Last reported at 2015-Aug-28 06:33 UTC. Time now 2015-Aug-28 07:36 UTC.
Position N 47°21' W 002°31'.

Length 21 m; draft 3.9 m.

Type: . MMSI: 228854000.

Date/timePositionNaut miles runAvg speedWind from/ knotsBaromVisibWave heightAir tempDewpointWater temp
2015-Aug-28 06:33N 47°21' W 002°31'0 0.0
2015-Aug-28 05:32N 47°21' W 002°31'3 3.2
2015-Aug-28 04:33N 47°20' W 002°35'9 9.5
2015-Aug-28 03:33N 47°18' W 002°49'10 9.7
2015-Aug-28 02:33N 47°21' W 003°02'1010.3
2015-Aug-28 01:33N 47°25' W 003°17'1010.1
2015-Aug-28 00:33N 47°29' W 003°31'1010.0
2015-Aug-27 23:33N 47°32' W 003°45'28 6.9
2015-Aug-27 19:33N 47°41' W 004°23'37 4.1
2015-Aug-27 10:33N 47°60' W 005°11'14 2.3
2015-Aug-27 04:33N 47°53' W 004°54'8 7.7
2015-Aug-27 03:33N 47°46' W 004°57'49 8.9
2015-Aug-26 22:05N 47°31' W 003°49'5 9.4
2015-Aug-26 21:33N 47°30' W 003°41'9 9.3
2015-Aug-26 20:33N 47°28' W 003°28'10 9.5
2015-Aug-26 19:33N 47°25' W 003°15'1010.2
2015-Aug-26 18:33N 47°20' W 003°02'10 9.9
2015-Aug-26 17:34N 47°18' W 002°48'10 9.9
2015-Aug-26 16:33N 47°20' W 002°33'2 1.8
2015-Aug-26 15:33N 47°21' W 002°31'0 0.0
2015-Aug-26 07:20N 47°21' W 002°31'0 0.0
2015-Aug-26 06:33N 47°21' W 002°31'0 0.0
2015-Aug-26 05:33N 47°21' W 002°31'0 0.0
2015-Aug-26 04:33N 47°21' W 002°31'0 0.0
2015-Aug-26 03:32N 47°21' W 002°31'0 0.0
2015-Aug-26 02:33N 47°21' W 002°31'0 0.0
2015-Aug-26 01:33N 47°21' W 002°31'0 0.0
2015-Aug-26 00:33N 47°21' W 002°31'0 0.0
2015-Aug-25 23:33N 47°21' W 002°31'0 0.0
2015-Aug-25 22:34N 47°21' W 002°31'0 0.0
2015-Aug-25 21:33N 47°21' W 002°31'0 0.0
2015-Aug-25 20:33N 47°21' W 002°31'0 0.0
2015-Aug-25 19:33N 47°21' W 002°31'0 0.0
2015-Aug-25 18:34N 47°21' W 002°31'0 0.0
2015-Aug-25 17:33N 47°21' W 002°31'0 0.0
2015-Aug-25 16:16N 47°21' W 002°31'0 0.0
2015-Aug-25 15:20N 47°21' W 002°31'0 0.0
2015-Aug-25 14:33N 47°21' W 002°31'0 0.0
2015-Aug-25 13:33N 47°21' W 002°31'0 0.0
2015-Aug-25 12:33N 47°21' W 002°31'0 0.0
2015-Aug-25 11:15N 47°21' W 002°31'0 0.0
2015-Aug-25 06:08N 47°21' W 002°31'0 0.0
2015-Aug-25 05:33N 47°21' W 002°31'0 0.0
2015-Aug-25 04:33N 47°21' W 002°31'0 0.0
2015-Aug-25 03:33N 47°21' W 002°31'0 0.0
2015-Aug-25 02:33N 47°21' W 002°31'0 0.0
2015-Aug-25 01:33N 47°21' W 002°31'0 0.0
2015-Aug-25 00:33N 47°21' W 002°31'0 0.0
2015-Aug-24 23:33N 47°21' W 002°31'0 0.0
2015-Aug-24 22:33N 47°21' W 002°31'0 0.0
2015-Aug-24 21:33N 47°21' W 002°31'0 0.0
2015-Aug-24 20:26N 47°21' W 002°31'0 0.0
2015-Aug-24 19:33N 47°21' W 002°31'0 0.0
2015-Aug-24 18:32N 47°21' W 002°31'0 0.0
2015-Aug-24 17:32N 47°21' W 002°31'0 0.0
2015-Aug-24 16:33N 47°21' W 002°31'0 0.0
2015-Aug-24 15:33N 47°21' W 002°31'0 0.0
2015-Aug-24 14:32N 47°21' W 002°31'0 0.0
2015-Aug-24 13:33N 47°21' W 002°31'0 0.0
2015-Aug-24 12:31N 47°21' W 002°31'0 0.0
2015-Aug-24 11:32N 47°21' W 002°31'0 0.0
2015-Aug-24 10:28N 47°21' W 002°31'0 0.0
2015-Aug-24 09:33N 47°21' W 002°31'0 0.0
2015-Aug-24 08:33N 47°21' W 002°31'0 0.0
2015-Aug-24 07:29N 47°21' W 002°31'0 0.0
2015-Aug-24 06:26N 47°21' W 002°31'0 0.0
2015-Aug-24 05:23N 47°21' W 002°31'0 0.0
2015-Aug-24 04:22N 47°21' W 002°31'15 7.2
2015-Aug-24 02:20N 47°18' W 002°52'8 9.4
2015-Aug-24 01:27N 47°21' W 003°03'8 9.1
2015-Aug-24 00:33N 47°25' W 003°14'9 8.9
2015-Aug-23 23:33N 47°28' W 003°26'9 8.9
2015-Aug-23 22:33N 47°31' W 003°39'9 8.8
2015-Aug-23 21:33N 47°34' W 003°51'66 9.4
2015-Aug-23 14:33N 48°02' W 005°19'6 5.2
2015-Aug-23 13:27N 47°60' W 005°12'63 4.5
2015-Aug-22 23:31N 47°32' W 003°47'9 9.8
2015-Aug-22 22:34N 47°29' W 003°34'10 9.5
2015-Aug-22 21:33N 47°26' W 003°20'10 9.9
2015-Aug-22 20:33N 47°23' W 003°07'10 9.9
2015-Aug-22 19:33N 47°19' W 002°53'9 9.1
2015-Aug-22 18:33N 47°19' W 002°40'6 0.1
2015-Aug-20 16:26N 47°21' W 002°31'0 0.1
2015-Aug-20 15:33N 47°21' W 002°31'0 0.0
2015-Aug-20 14:33N 47°21' W 002°31'7 7.3
2015-Aug-20 13:33N 47°15' W 002°37'8 8.3
2015-Aug-20 12:33N 47°08' W 002°43'9 3.8
2015-Aug-20 10:12N 47°00' W 002°50'3 4.3
2015-Aug-20 09:24N 46°59' W 002°45'4 1.6
2015-Aug-20 07:10N 47°01' W 002°40'2 3.1
2015-Aug-20 06:28N 46°59' W 002°39'10 4.2
2015-Aug-20 04:12N 47°08' W 002°37'7 8.9
2015-Aug-20 03:25N 47°15' W 002°35'6 6.8
2015-Aug-20 02:33N 47°20' W 002°31'1 0.6
2015-Aug-20 01:33N 47°21' W 002°31'0 0.0
2015-Aug-20 00:33N 47°21' W 002°31'0 0.0
2015-Aug-19 23:33N 47°21' W 002°31'8 8.3
2015-Aug-19 22:32N 47°13' W 002°36'1010.0
2015-Aug-19 21:32N 47°03' W 002°36'1010.0
2015-Aug-19 20:33N 46°54' W 002°34'9 0.9
2015-Aug-19 10:32N 47°01' W 002°41'3 1.2
2015-Aug-19 08:16N 46°59' W 002°39'1 1.1
2015-Aug-19 07:08N 46°59' W 002°37'2 2.9
2015-Aug-19 06:24N 46°60' W 002°34'1 1.2
2015-Aug-19 05:33N 46°59' W 002°35'1 0.3
2015-Aug-19 03:29N 46°59' W 002°35'3 2.8
2015-Aug-19 02:30N 47°01' W 002°35'8 8.8
2015-Aug-19 01:33N 47°10' W 002°35'9 9.2
2015-Aug-19 00:33N 47°19' W 002°35'  

Dump ship's entire track history